createdAt,value
2022-08-02T00:01:33.102Z,99.90
2022-08-02T00:04:04.771Z,99.90
2022-08-02T00:06:36.915Z,99.90
2022-08-02T00:09:09.107Z,99.90
2022-08-02T00:11:40.628Z,99.70
2022-08-02T00:14:17.218Z,99.90
2022-08-02T00:16:49.185Z,99.90
2022-08-02T00:19:20.566Z,99.90
2022-08-02T00:21:52.143Z,99.90
2022-08-02T00:24:30.740Z,99.90
2022-08-02T00:27:09.164Z,99.90
2022-08-02T00:29:52.568Z,99.90
2022-08-02T00:32:26.467Z,99.90
2022-08-02T00:34:57.754Z,99.90
2022-08-02T00:37:29.300Z,99.90
2022-08-02T00:40:02.354Z,99.90
2022-08-02T00:42:35.122Z,99.90
2022-08-02T00:45:10.147Z,99.90
2022-08-02T00:47:41.626Z,99.90
2022-08-02T00:50:13.637Z,99.90
2022-08-02T00:52:45.174Z,99.90
2022-08-02T00:55:17.384Z,99.90
2022-08-02T00:57:50.429Z,99.90
2022-08-02T01:00:25.011Z,99.90
2022-08-02T01:03:01.525Z,99.90
2022-08-02T01:05:55.751Z,99.90
2022-08-02T01:08:29.389Z,99.90
2022-08-02T01:11:03.140Z,99.90
2022-08-02T01:13:35.274Z,99.90
2022-08-02T01:16:15.152Z,99.90
2022-08-02T01:18:51.122Z,99.90
2022-08-02T01:21:38.863Z,99.90
2022-08-02T01:24:24.029Z,99.90
2022-08-02T01:27:03.635Z,99.90
2022-08-02T01:29:41.481Z,99.90
2022-08-02T01:32:17.617Z,99.90
2022-08-02T01:34:55.710Z,99.90
2022-08-02T01:37:32.585Z,99.90
2022-08-02T01:40:09.682Z,99.90
2022-08-02T01:42:44.919Z,99.90
2022-08-02T01:45:21.258Z,99.90
2022-08-02T01:47:53.519Z,99.90
2022-08-02T01:50:29.337Z,99.90
2022-08-02T01:53:03.143Z,99.90
2022-08-02T01:55:57.149Z,99.90
2022-08-02T01:58:33.945Z,99.90
2022-08-02T02:01:09.745Z,99.90
2022-08-02T02:03:48.730Z,99.90
2022-08-02T02:06:21.298Z,99.90
2022-08-02T02:08:53.866Z,99.90
2022-08-02T02:12:11.504Z,99.90
2022-08-02T02:14:18.072Z,99.90
2022-08-02T02:16:52.871Z,99.90
2022-08-02T02:19:26.956Z,99.90
2022-08-02T02:21:58.787Z,99.90
2022-08-02T02:24:30.744Z,99.90
2022-08-02T02:27:05.245Z,99.90
2022-08-02T02:29:37.608Z,99.90
2022-08-02T02:32:12.406Z,99.90
2022-08-02T02:34:47.442Z,99.90
2022-08-02T02:37:23.554Z,99.90
2022-08-02T02:39:56.744Z,99.90
2022-08-02T02:42:32.203Z,99.90
2022-08-02T02:45:03.887Z,99.90
2022-08-02T02:47:41.063Z,99.90
2022-08-02T02:50:14.845Z,99.90
2022-08-02T02:52:47.146Z,99.90
2022-08-02T02:55:20.508Z,99.90
2022-08-02T02:57:52.846Z,99.90
2022-08-02T03:00:45.587Z,99.90
2022-08-02T03:03:21.454Z,99.90
2022-08-02T03:05:54.334Z,99.90
2022-08-02T03:08:28.732Z,99.90
2022-08-02T03:11:00.513Z,99.90
2022-08-02T03:13:33.161Z,99.90
2022-08-02T03:16:08.710Z,99.90
2022-08-02T03:18:44.322Z,99.90
2022-08-02T03:21:16.629Z,99.90
2022-08-02T03:23:48.119Z,99.90
2022-08-02T03:26:19.537Z,99.90
2022-08-02T03:28:51.017Z,99.90
2022-08-02T03:31:22.314Z,99.90
2022-08-02T03:33:57.660Z,99.90
2022-08-02T03:36:33.445Z,99.90
2022-08-02T03:39:05.602Z,99.90
2022-08-02T03:41:38.575Z,99.90
2022-08-02T03:44:10.832Z,99.90
2022-08-02T03:46:42.968Z,99.90
2022-08-02T03:49:19.885Z,99.90
2022-08-02T03:51:51.606Z,99.90
2022-08-02T03:54:22.983Z,99.90
2022-08-02T03:57:04.845Z,99.90
2022-08-02T03:59:44.832Z,99.90
2022-08-02T04:02:16.832Z,99.90
2022-08-02T04:04:50.881Z,99.90
2022-08-02T04:08:02.628Z,99.90
2022-08-02T04:10:14.534Z,99.90
2022-08-02T04:12:45.752Z,99.90
2022-08-02T04:15:18.695Z,99.90
2022-08-02T04:17:56.716Z,99.90
2022-08-02T04:20:32.839Z,99.90
2022-08-02T04:23:09.389Z,99.90
2022-08-02T04:25:44.603Z,99.90
2022-08-02T04:28:20.062Z,99.90
2022-08-02T04:31:01.283Z,99.90
2022-08-02T04:33:34.161Z,99.90
2022-08-02T04:36:10.827Z,99.90
2022-08-02T04:38:42.138Z,99.90
2022-08-02T04:41:13.700Z,99.90
2022-08-02T04:43:45.131Z,99.90
2022-08-02T04:46:16.747Z,99.90
2022-08-02T04:48:48.032Z,99.90
2022-08-02T04:51:22.138Z,99.90
2022-08-02T04:54:10.928Z,99.90
2022-08-02T04:56:42.626Z,99.90
2022-08-02T04:59:13.993Z,99.90
2022-08-02T05:01:45.518Z,99.90
2022-08-02T05:04:16.780Z,99.90
2022-08-02T05:06:50.883Z,99.90
2022-08-02T05:09:22.290Z,99.90
2022-08-02T05:11:55.220Z,99.90
2022-08-02T05:14:26.600Z,99.90
2022-08-02T05:16:58.205Z,99.90
2022-08-02T05:19:29.503Z,99.90
2022-08-02T05:22:03.589Z,99.90
2022-08-02T05:24:35.104Z,99.90
2022-08-02T05:27:16.446Z,99.90
2022-08-02T05:29:56.971Z,99.90
2022-08-02T05:32:28.945Z,99.90
2022-08-02T05:35:00.196Z,99.90
2022-08-02T05:37:35.341Z,99.90
2022-08-02T05:40:13.233Z,99.90
2022-08-02T05:42:45.226Z,99.90
2022-08-02T05:45:18.019Z,99.90
2022-08-02T05:47:49.524Z,99.90
2022-08-02T05:50:20.997Z,99.90
2022-08-02T05:53:03.686Z,99.90
2022-08-02T05:55:38.535Z,99.90
2022-08-02T05:58:20.153Z,99.90
2022-08-02T06:00:53.271Z,99.90
2022-08-02T06:03:27.697Z,99.90
2022-08-02T06:06:03.610Z,99.90
2022-08-02T06:08:45.824Z,99.90
2022-08-02T06:11:20.960Z,99.90
2022-08-02T06:13:54.506Z,99.90
2022-08-02T06:16:32.244Z,99.90
2022-08-02T06:19:05.708Z,99.90
2022-08-02T06:22:42.028Z,99.90
2022-08-02T06:24:33.280Z,99.90
2022-08-02T06:27:05.818Z,99.90
2022-08-02T06:29:39.057Z,99.90
2022-08-02T06:32:11.542Z,99.90
2022-08-02T06:34:43.894Z,99.90
2022-08-02T06:37:17.990Z,99.90
2022-08-02T06:39:54.959Z,99.90
2022-08-02T06:42:37.946Z,99.90
2022-08-02T06:45:10.889Z,99.90
2022-08-02T06:47:42.251Z,99.90
2022-08-02T06:50:14.205Z,99.90
2022-08-02T06:52:45.893Z,99.90
2022-08-02T06:55:20.530Z,99.90
2022-08-02T06:57:51.764Z,99.90
2022-08-02T07:00:25.523Z,99.90
2022-08-02T07:02:56.970Z,99.90
2022-08-02T07:05:28.278Z,99.90
2022-08-02T07:08:00.950Z,99.90
2022-08-02T07:10:35.190Z,99.90
2022-08-02T07:13:06.622Z,99.90
2022-08-02T07:15:38.341Z,99.90
2022-08-02T07:18:15.071Z,99.90
2022-08-02T07:20:46.465Z,99.90
2022-08-02T07:23:19.752Z,99.90
2022-08-02T07:26:03.481Z,99.90
2022-08-02T07:28:36.370Z,99.90
2022-08-02T07:31:07.920Z,99.90
2022-08-02T07:33:40.878Z,99.90
2022-08-02T07:36:16.690Z,99.90
2022-08-02T07:38:49.679Z,99.90
2022-08-02T07:41:23.844Z,99.90
2022-08-02T07:43:55.068Z,99.90
2022-08-02T07:46:26.579Z,99.90
2022-08-02T07:49:00.013Z,99.90
2022-08-02T07:51:33.271Z,99.90
2022-08-02T07:54:04.950Z,99.90
2022-08-02T07:56:39.173Z,99.90
2022-08-02T07:59:10.627Z,99.90
2022-08-02T08:01:45.891Z,99.90
2022-08-02T08:04:17.558Z,99.90
2022-08-02T08:06:52.088Z,99.90
2022-08-02T08:09:23.645Z,99.90
2022-08-02T08:11:57.383Z,99.90
2022-08-02T08:14:28.546Z,99.90
2022-08-02T08:17:00.011Z,99.90
2022-08-02T08:19:50.485Z,99.90
2022-08-02T08:22:23.129Z,99.90
2022-08-02T08:24:54.315Z,99.90
2022-08-02T08:27:28.521Z,99.90
2022-08-02T08:30:00.201Z,99.90
2022-08-02T08:32:31.884Z,99.90
2022-08-02T08:35:03.878Z,99.90
2022-08-02T08:37:37.571Z,99.90
2022-08-02T08:40:09.409Z,99.90
2022-08-02T08:42:43.775Z,99.90
2022-08-02T08:45:15.255Z,99.90
2022-08-02T08:47:50.777Z,99.90
2022-08-02T08:50:25.994Z,99.40
2022-08-02T08:53:05.103Z,99.90
2022-08-02T08:55:38.388Z,99.40
2022-08-02T08:58:12.557Z,98.20
2022-08-02T09:00:44.467Z,97.90
2022-08-02T09:03:16.272Z,98.90
2022-08-02T09:05:48.949Z,98.60
2022-08-02T09:08:21.256Z,98.60
2022-08-02T09:10:52.605Z,98.50
2022-08-02T09:13:38.775Z,97.80
2022-08-02T09:16:17.149Z,97.50
2022-08-02T09:18:50.155Z,97.60
2022-08-02T09:21:22.360Z,97.40
2022-08-02T09:23:55.705Z,97.90
2022-08-02T09:26:27.882Z,96.30
2022-08-02T09:29:05.756Z,97.70
2022-08-02T09:31:39.139Z,97.00
2022-08-02T09:34:12.219Z,96.60
2022-08-02T09:36:44.832Z,96.90
2022-08-02T09:39:18.117Z,96.50
2022-08-02T09:41:49.470Z,96.20
2022-08-02T09:44:23.557Z,96.10
2022-08-02T09:46:54.888Z,95.50
2022-08-02T09:49:26.383Z,94.90
2022-08-02T09:51:59.344Z,95.30
2022-08-02T09:54:33.158Z,95.50
2022-08-02T09:57:04.645Z,94.90
2022-08-02T09:59:38.672Z,95.10
2022-08-02T10:02:17.956Z,94.90
2022-08-02T10:04:54.641Z,95.20
2022-08-02T10:07:26.390Z,94.50
2022-08-02T10:09:58.974Z,94.10
2022-08-02T10:12:30.871Z,94.70
2022-08-02T10:15:06.114Z,94.10
2022-08-02T10:17:39.809Z,94.00
2022-08-02T10:20:12.579Z,93.50
2022-08-02T10:22:45.681Z,93.10
2022-08-02T10:25:17.713Z,93.90
2022-08-02T10:28:04.796Z,93.60
2022-08-02T10:30:40.868Z,93.70
2022-08-02T10:33:14.497Z,92.90
2022-08-02T10:35:46.346Z,93.50
2022-08-02T10:38:21.283Z,93.10
2022-08-02T10:40:55.369Z,93.50
2022-08-02T10:43:50.513Z,93.20
2022-08-02T10:46:35.810Z,93.50
2022-08-02T10:52:22.841Z,91.90
2022-08-02T10:54:58.892Z,92.10
2022-08-02T10:57:31.954Z,92.40
2022-08-02T11:00:12.705Z,91.80
2022-08-02T11:02:53.331Z,92.20
2022-08-02T11:05:42.535Z,92.20
2022-08-02T11:08:22.847Z,91.50
2022-08-02T11:10:54.186Z,91.30
2022-08-02T11:13:26.590Z,91.40
2022-08-02T11:16:01.320Z,91.10
2022-08-02T11:19:02.636Z,91.50
2022-08-02T11:21:41.022Z,91.20
2022-08-02T11:24:29.301Z,90.80
2022-08-02T11:27:01.271Z,90.50
2022-08-02T11:29:38.316Z,90.60
2022-08-02T11:32:11.906Z,90.60
2022-08-02T11:34:45.323Z,90.30
2022-08-02T11:37:31.057Z,90.20
2022-08-02T11:40:02.637Z,90.10
2022-08-02T11:42:35.991Z,90.50
2022-08-02T11:45:09.189Z,90.00
2022-08-02T11:47:48.992Z,89.70
2022-08-02T11:50:29.769Z,89.10
2022-08-02T11:53:04.334Z,89.00
2022-08-02T11:55:35.874Z,88.90
2022-08-02T11:58:10.226Z,88.70
2022-08-02T12:00:47.166Z,88.40
2022-08-02T12:03:19.898Z,88.80
2022-08-02T12:06:05.498Z,87.40
2022-08-02T12:08:41.073Z,87.40
2022-08-02T12:11:25.930Z,87.60
2022-08-02T12:14:11.136Z,89.20
2022-08-02T12:16:55.696Z,87.60
2022-08-02T12:19:30.042Z,86.60
2022-08-02T12:22:17.071Z,86.20
2022-08-02T12:24:53.326Z,85.50
2022-08-02T12:27:36.600Z,85.20
2022-08-02T12:30:11.305Z,85.30
2022-08-02T12:32:43.032Z,84.00
2022-08-02T12:35:15.316Z,83.90
2022-08-02T12:37:59.271Z,84.10
2022-08-02T12:40:36.873Z,84.50
2022-08-02T12:43:10.759Z,83.90
2022-08-02T12:45:50.456Z,83.90
2022-08-02T12:48:39.132Z,83.50
2022-08-02T12:51:24.602Z,83.20
2022-08-02T12:53:59.789Z,83.30
2022-08-02T12:56:36.625Z,82.30
2022-08-02T12:59:10.456Z,81.60
2022-08-02T13:01:41.951Z,81.50
2022-08-02T13:04:16.344Z,81.90
2022-08-02T13:06:47.915Z,80.80
2022-08-02T13:09:19.579Z,80.10
2022-08-02T13:11:53.526Z,79.50
2022-08-02T13:14:25.004Z,80.10
2022-08-02T13:16:58.200Z,80.30
2022-08-02T13:19:31.275Z,79.20
2022-08-02T13:22:03.719Z,79.70
2022-08-02T13:24:41.309Z,80.50
2022-08-02T13:27:30.721Z,79.70
2022-08-02T13:30:04.171Z,79.60
2022-08-02T13:32:35.661Z,78.90
2022-08-02T13:35:07.672Z,80.00
2022-08-02T13:37:49.635Z,79.40
2022-08-02T13:40:22.626Z,79.00
2022-08-02T13:42:56.559Z,79.10
2022-08-02T13:45:28.402Z,78.90
2022-08-02T13:48:04.403Z,79.10
2022-08-02T13:50:36.556Z,79.50
2022-08-02T13:53:07.797Z,78.60
2022-08-02T13:55:39.752Z,79.20
2022-08-02T13:58:17.396Z,78.10
2022-08-02T14:00:49.051Z,78.30
2022-08-02T14:03:20.372Z,78.80
2022-08-02T14:05:52.718Z,78.40
2022-08-02T14:08:27.276Z,78.10
2022-08-02T14:10:58.708Z,79.90
2022-08-02T14:13:36.194Z,80.50
2022-08-02T14:16:08.907Z,79.90
2022-08-02T14:18:40.647Z,79.90
2022-08-02T14:21:12.103Z,80.30
2022-08-02T14:23:49.730Z,78.90
2022-08-02T14:26:27.556Z,79.10
2022-08-02T14:29:01.891Z,81.00
2022-08-02T14:31:33.399Z,81.30
2022-08-02T14:34:04.729Z,81.30
2022-08-02T14:36:36.024Z,81.00
2022-08-02T14:39:09.363Z,82.50
2022-08-02T14:41:58.496Z,81.50
2022-08-02T14:44:34.502Z,81.70
2022-08-02T14:47:06.201Z,81.80
2022-08-02T14:49:41.544Z,80.40
2022-08-02T14:52:14.830Z,81.60
2022-08-02T14:54:49.607Z,80.90
2022-08-02T14:57:21.170Z,80.80
2022-08-02T15:00:00.741Z,80.40
2022-08-02T15:02:32.320Z,81.10
2022-08-02T15:05:03.550Z,82.10
2022-08-02T15:07:39.467Z,79.10
2022-08-02T15:10:13.479Z,80.00
2022-08-02T15:12:45.062Z,80.80
2022-08-02T15:15:18.920Z,81.50
2022-08-02T15:17:50.529Z,81.60
2022-08-02T15:20:25.574Z,77.60
2022-08-02T15:22:58.907Z,80.30
2022-08-02T15:25:30.099Z,80.40
2022-08-02T15:28:01.637Z,79.70
2022-08-02T15:30:35.809Z,80.60
2022-08-02T15:33:07.588Z,80.70
2022-08-02T15:35:39.005Z,81.00
2022-08-02T15:38:10.150Z,79.30
2022-08-02T15:40:41.602Z,80.80
2022-08-02T15:43:12.844Z,77.50
2022-08-02T15:45:46.478Z,79.20
2022-08-02T15:48:17.755Z,78.30
2022-08-02T15:50:48.745Z,77.60
2022-08-02T15:53:19.938Z,77.30
2022-08-02T15:56:05.508Z,76.60
2022-08-02T15:58:44.328Z,77.30
2022-08-02T16:01:18.105Z,75.80
2022-08-02T16:03:49.294Z,76.20
2022-08-02T16:06:20.099Z,77.00
2022-08-02T16:08:54.957Z,76.20
2022-08-02T16:11:26.070Z,76.50
2022-08-02T16:13:59.218Z,77.00
2022-08-02T16:16:33.584Z,79.00
2022-08-02T16:19:30.679Z,78.40
2022-08-02T16:21:56.721Z,79.60
2022-08-02T16:24:27.896Z,78.50
2022-08-02T16:26:58.652Z,79.90
2022-08-02T16:29:33.363Z,78.70
2022-08-02T16:32:07.975Z,77.40
2022-08-02T16:35:08.069Z,79.90
2022-08-02T16:37:51.569Z,80.50
2022-08-02T16:40:24.019Z,79.40
2022-08-02T16:42:55.154Z,78.50
2022-08-02T16:45:26.194Z,77.80
2022-08-02T16:48:03.667Z,78.30
2022-08-02T16:50:37.039Z,78.20
2022-08-02T16:53:08.039Z,78.30
2022-08-02T16:55:39.367Z,78.20
2022-08-02T16:58:22.943Z,77.50
2022-08-02T17:00:54.046Z,78.10
2022-08-02T17:03:48.481Z,78.70
2022-08-02T17:06:19.070Z,79.40
2022-08-02T17:08:54.648Z,81.50
2022-08-02T17:11:26.157Z,80.70
2022-08-02T17:13:56.874Z,80.80
2022-08-02T17:16:30.581Z,80.60
2022-08-02T17:19:04.060Z,80.40
2022-08-02T17:21:35.275Z,80.80
2022-08-02T17:24:08.181Z,81.10
2022-08-02T17:26:40.134Z,81.20
2022-08-02T17:29:16.426Z,81.20
2022-08-02T17:32:05.087Z,81.40
2022-08-02T17:34:40.117Z,81.50
2022-08-02T17:37:20.289Z,81.40
2022-08-02T17:39:52.343Z,81.20
2022-08-02T17:42:24.363Z,81.10
2022-08-02T17:45:01.035Z,80.90
2022-08-02T17:48:04.927Z,80.90
2022-08-02T17:50:38.964Z,80.50
2022-08-02T17:53:10.058Z,80.90
2022-08-02T17:55:43.082Z,81.60
2022-08-02T17:58:22.195Z,80.90
2022-08-02T18:01:03.951Z,81.40
2022-08-02T18:03:34.950Z,81.40
2022-08-02T18:06:16.440Z,80.90
2022-08-02T18:08:48.946Z,81.10
2022-08-02T18:11:51.846Z,81.50
2022-08-02T18:14:13.596Z,81.20
2022-08-02T18:16:45.999Z,81.10
2022-08-02T18:19:17.466Z,81.30
2022-08-02T18:21:51.330Z,81.10
2022-08-02T18:24:24.238Z,82.00
2022-08-02T18:26:57.014Z,82.20
2022-08-02T18:29:30.107Z,82.10
2022-08-02T18:32:11.905Z,82.30
2022-08-02T18:34:47.590Z,82.60
2022-08-02T18:37:21.331Z,83.10
2022-08-02T18:39:54.803Z,83.20
2022-08-02T18:42:26.121Z,83.50
2022-08-02T18:44:57.246Z,83.60
2022-08-02T18:47:28.462Z,83.50
2022-08-02T18:50:04.270Z,83.90
2022-08-02T18:52:38.130Z,84.20
2022-08-02T18:55:17.198Z,85.00
2022-08-02T18:58:19.395Z,84.60
2022-08-02T19:00:52.237Z,83.90
2022-08-02T19:03:24.109Z,83.70
2022-08-02T19:05:55.255Z,84.20
2022-08-02T19:08:30.080Z,83.80
2022-08-02T19:11:02.699Z,83.60
2022-08-02T19:13:33.752Z,85.40
2022-08-02T19:16:07.546Z,84.00
2022-08-02T19:18:38.463Z,83.90
2022-08-02T19:21:10.023Z,83.80
2022-08-02T19:23:54.762Z,84.20
2022-08-02T19:26:27.372Z,84.10
2022-08-02T19:28:58.941Z,83.90
2022-08-02T19:31:34.717Z,84.20
2022-08-02T19:34:21.079Z,84.40
2022-08-02T19:36:56.305Z,85.60
2022-08-02T19:39:31.019Z,84.50
2022-08-02T19:42:03.315Z,84.70
2022-08-02T19:44:36.321Z,84.50
2022-08-02T19:47:08.088Z,84.80
2022-08-02T19:49:43.028Z,85.00
2022-08-02T19:52:21.346Z,85.20
2022-08-02T19:54:58.665Z,85.20
2022-08-02T19:57:34.536Z,85.30
2022-08-02T20:00:06.119Z,86.70
2022-08-02T20:02:47.320Z,85.30
2022-08-02T20:05:26.702Z,86.40
2022-08-02T20:07:58.331Z,86.50
2022-08-02T20:10:33.512Z,86.40
2022-08-02T20:13:05.041Z,86.80
2022-08-02T20:15:56.090Z,87.00
2022-08-02T20:18:29.845Z,87.70
2022-08-02T20:21:00.815Z,87.50
2022-08-02T20:23:32.565Z,87.70
2022-08-02T20:26:09.123Z,87.40
2022-08-02T20:28:40.251Z,87.90
2022-08-02T20:31:11.586Z,87.80
2022-08-02T20:33:55.912Z,88.40
2022-08-02T20:36:33.665Z,89.10
2022-08-02T20:39:04.798Z,88.60
2022-08-02T20:44:34.069Z,89.30
2022-08-02T20:47:04.874Z,88.60
2022-08-02T20:49:56.979Z,89.20
2022-08-02T20:52:25.325Z,89.20
2022-08-02T20:54:59.473Z,89.20
2022-08-02T20:57:48.614Z,89.00
2022-08-02T21:00:20.869Z,89.60
2022-08-02T21:02:52.363Z,89.70
2022-08-02T21:05:43.964Z,89.80
2022-08-02T21:08:15.834Z,89.70
2022-08-02T21:10:52.269Z,90.10
2022-08-02T21:13:26.865Z,89.90
2022-08-02T21:16:01.606Z,89.70
2022-08-02T21:18:39.995Z,89.60
2022-08-02T21:21:14.701Z,90.00
2022-08-02T21:23:54.523Z,90.10
2022-08-02T21:26:30.433Z,90.20
2022-08-02T21:29:05.782Z,90.20
2022-08-02T21:31:36.923Z,90.20
2022-08-02T21:34:22.539Z,90.50
2022-08-02T21:36:58.755Z,90.50
2022-08-02T21:39:29.571Z,90.40
2022-08-02T21:42:00.810Z,90.40
2022-08-02T21:44:34.266Z,90.40
2022-08-02T21:47:05.425Z,90.50
2022-08-02T21:50:09.170Z,90.40
2022-08-02T21:52:29.130Z,90.60
2022-08-02T21:55:00.014Z,90.60
2022-08-02T22:00:28.891Z,91.40
2022-08-02T22:03:00.547Z,91.10
2022-08-02T22:05:51.492Z,91.00
2022-08-02T22:08:23.637Z,90.80
2022-08-02T22:11:16.867Z,91.20
2022-08-02T22:13:48.536Z,91.10
2022-08-02T22:16:23.626Z,91.60
2022-08-02T22:18:58.349Z,91.50
2022-08-02T22:21:46.685Z,91.30
2022-08-02T22:24:29.711Z,91.30
2022-08-02T22:27:01.145Z,91.10
2022-08-02T22:29:33.550Z,91.20
2022-08-02T22:32:08.640Z,91.30
2022-08-02T22:34:52.395Z,91.30
2022-08-02T22:38:16.133Z,91.60
2022-08-02T22:40:14.780Z,91.80
2022-08-02T22:42:45.776Z,91.50
2022-08-02T22:45:16.797Z,91.80
2022-08-02T22:47:51.013Z,91.50
2022-08-02T22:50:22.969Z,91.60
2022-08-02T22:52:53.912Z,91.50
2022-08-02T22:55:32.429Z,92.00
2022-08-02T22:58:03.512Z,91.80
2022-08-02T22:59:05.338Z,89.20
2022-08-02T23:00:35.550Z,92.20
2022-08-02T23:03:08.946Z,91.80
2022-08-02T23:05:40.085Z,92.00
2022-08-02T23:08:10.824Z,92.20
2022-08-02T23:10:42.217Z,91.80
2022-08-02T23:13:13.033Z,92.10
2022-08-02T23:15:56.570Z,92.10
2022-08-02T23:18:48.257Z,92.30
2022-08-02T23:21:45.814Z,92.70
2022-08-02T23:24:10.208Z,92.10
2022-08-02T23:26:41.167Z,92.80
2022-08-02T23:29:12.233Z,92.40
2022-08-02T23:31:43.316Z,92.00
2022-08-02T23:34:18.469Z,92.10
2022-08-02T23:36:49.510Z,92.70
2022-08-02T23:39:20.344Z,92.50
2022-08-02T23:41:55.253Z,92.40
2022-08-02T23:44:26.705Z,92.60
2022-08-02T23:46:58.376Z,92.60
2022-08-02T23:49:31.894Z,93.00
2022-08-02T23:52:03.222Z,93.00
2022-08-02T23:54:33.974Z,93.00
2022-08-02T23:57:19.620Z,92.60
2022-08-02T23:59:52.972Z,93.00
